^^
Meteo Knjazevac Station Historical Data
Daily Summary for June 30, 2022 Units:  Metric    English   Both
Daily Weekly Monthly Yearly Custom
  High: Low: Average:
Temperature: 35 °C 13.6 °C 24.7 °C
Dew Point: 23.1 °C 13 °C 18.6 °C
Humidity: 99% 47% 73%
Wind Speed: 9.7km/h 0km/h 2.3km/h
Wind Gust: 19.3km/h - -
Wind- - South
Pressure: 1016.8 hPa 1013.8 hPa -
Precipitation: 0 mm    
Historical Graphs
 
 
Tabular Data for June 30, 2022
Time Temperature Dew Point Pressure Wind Wind Speed Wind Gust Humidity Rainfall Rate (Hourly) solar Conditions
00:00 18 °C 16.2 °C 1016.1 hPa West 3.2 km/h 6.4 km/h 89% 0 mm 0 W/m2
00:10 17.6 °C 15.9 °C 1016.1 hPa West 1.6 km/h 8 km/h 90% 0 mm 0 W/m2
00:20 17.3 °C 15.7 °C 1016.1 hPa WSW 1.6 km/h 8 km/h 90% 0 mm 0 W/m2
00:50 16.8 °C 15.3 °C 1016.1 hPa Calm   3.2 km/h 91% 0 mm 0 W/m2
01:00 16.5 °C 15.4 °C 1016.5 hPa West 3.2 km/h 8 km/h 93% 0 mm 0 W/m2
01:10 16.4 °C 15.3 °C 1016.5 hPa WNW 1.6 km/h 8 km/h 93% 0 mm 0 W/m2
01:20 16.3 °C 15.2 °C 1016.1 hPa WSW 1.6 km/h 8 km/h 93% 0 mm 0 W/m2
01:30 16.2 °C 15.1 °C 1016.1 hPa WSW 1.6 km/h 3.2 km/h 93% 0 mm 0 W/m2
01:50 15.9 °C 14.8 °C 1016.1 hPa WNW 1.6 km/h 6.4 km/h 93% 0 mm 0 W/m2
02:00 15.8 °C 14.8 °C 1016.1 hPa WNW 1.6 km/h 4.8 km/h 94% 0 mm 0 W/m2
02:10 15.7 °C 14.7 °C 1016.1 hPa West 1.6 km/h 3.2 km/h 94% 0 mm 0 W/m2
02:20 15.5 °C 14.6 °C 1016.1 hPa WNW 1.6 km/h 3.2 km/h 94% 0 mm 0 W/m2
02:30 15.4 °C 14.4 °C 1016.5 hPa WNW 1.6 km/h 3.2 km/h 94% 0 mm 0 W/m2
02:40 15.2 °C 14.2 °C 1016.1 hPa West 1.6 km/h 4.8 km/h 94% 0 mm 0 W/m2
03:00 15.1 °C 14.2 °C 1016.1 hPa WNW 1.6 km/h 4.8 km/h 94% 0 mm 0 W/m2
03:10 15 °C 14.1 °C 1016.1 hPa Calm   4.8 km/h 94% 0 mm 0 W/m2
03:20 14.8 °C 13.8 °C 1016.1 hPa West 3.2 km/h 4.8 km/h 94% 0 mm 0 W/m2
03:30 14.7 °C 13.7 °C 1016.1 hPa West 1.6 km/h 4.8 km/h 94% 0 mm 0 W/m2
03:40 14.6 °C 13.7 °C 1016.1 hPa Calm   3.2 km/h 94% 0 mm 0 W/m2
04:00 14.4 °C 13.6 °C 1016.1 hPa WNW 1.6 km/h 4.8 km/h 95% 0 mm 0 W/m2
04:10 14.2 °C 13.4 °C 1016.1 hPa West 3.2 km/h 6.4 km/h 95% 0 mm 0 W/m2
04:20 14.2 °C 13.4 °C 1016.1 hPa NW 1.6 km/h 4.8 km/h 95% 0 mm 0 W/m2
04:30 14.1 °C 13.3 °C 1016.1 hPa WNW 1.6 km/h 3.2 km/h 95% 0 mm 0 W/m2
04:40 13.9 °C 13.1 °C 1016.1 hPa WSW 1.6 km/h 3.2 km/h 95% 0 mm 0 W/m2
05:00 13.7 °C 13.1 °C 1016.1 hPa WSW 1.6 km/h 6.4 km/h 96% 0 mm 7 W/m2
05:10 13.7 °C 13.1 °C 1016.1 hPa West 1.6 km/h 6.4 km/h 96% 0 mm 12 W/m2
05:20 13.6 °C 13 °C 1016.1 hPa Calm   4.8 km/h 96% 0 mm 20 W/m2
05:30 13.6 °C 13.3 °C 1016.1 hPa Calm   3.2 km/h 98% 0 mm 27 W/m2
05:40 13.7 °C 13.4 °C 1016.1 hPa Calm   3.2 km/h 98% 0 mm 33 W/m2
05:50 13.7 °C 13.1 °C 1016.5 hPa North 1.6 km/h 3.2 km/h 96% 0 mm 58 W/m2
06:00 13.8 °C 13.2 °C 1016.5 hPa Calm   3.2 km/h 96% 0 mm 86 W/m2
06:10 13.8 °C 13.5 °C 1016.5 hPa NNE 3.2 km/h 4.8 km/h 98% 0 mm 108 W/m2
06:20 14.1 °C 13.9 °C 1016.5 hPa Calm   4.8 km/h 99% 0 mm 131 W/m2
06:50 14.6 °C 14.3 °C 1016.5 hPa Calm   1.6 km/h 98% 0 mm 212 W/m2
07:00 14.9 °C 14.6 °C 1016.8 hPa NE 1.6 km/h 4.8 km/h 98% 0 mm 241 W/m2
07:10 15.4 °C 15.1 °C 1016.8 hPa NE 1.6 km/h 4.8 km/h 98% 0 mm 272 W/m2
07:20 15.9 °C 15.1 °C 1016.8 hPa NE 1.6 km/h 6.4 km/h 95% 0 mm 304 W/m2
07:30 16.4 °C 15.6 °C 1016.8 hPa NNE 1.6 km/h 6.4 km/h 95% 0 mm 334 W/m2
07:40 16.7 °C 15.7 °C 1016.8 hPa North 1.6 km/h 4.8 km/h 94% 0 mm 367 W/m2
07:50 17.1 °C 15.6 °C 1016.8 hPa Calm   3.2 km/h 91% 0 mm 404 W/m2
08:10 18 °C 16.3 °C 1016.8 hPa WSW 1.6 km/h 4.8 km/h 90% 0 mm 479 W/m2
08:20 18.9 °C 17.1 °C 1016.8 hPa WNW 1.6 km/h 6.4 km/h 89% 0 mm 511 W/m2
08:40 21.2 °C 18.2 °C 1016.8 hPa WSW 1.6 km/h 4.8 km/h 83% 0 mm 574 W/m2
08:50 22.2 °C 18.2 °C 1016.8 hPa ENE 3.2 km/h 9.7 km/h 78% 0 mm 606 W/m2
09:00 22.9 °C 18.2 °C 1016.8 hPa Calm   9.7 km/h 75% 0 mm 636 W/m2
09:20 24.5 °C 19.3 °C 1016.8 hPa NNE 1.6 km/h 9.7 km/h 73% 0 mm 696 W/m2
09:30 25.1 °C 19.2 °C 1016.5 hPa North 4.8 km/h 11.3 km/h 70% 0 mm 724 W/m2
09:40 25.8 °C 19.4 °C 1016.5 hPa NNE 3.2 km/h 11.3 km/h 68% 0 mm 752 W/m2
09:50 26.4 °C 19.3 °C 1016.5 hPa NNE 3.2 km/h 11.3 km/h 65% 0 mm 774 W/m2
10:00 26.9 °C 19.5 °C 1016.5 hPa North 3.2 km/h 9.7 km/h 64% 0 mm 801 W/m2
10:10 27.5 °C 19.8 °C 1016.5 hPa North 3.2 km/h 9.7 km/h 63% 0 mm 823 W/m2
10:20 27.9 °C 19.9 °C 1016.1 hPa NE 1.6 km/h 12.9 km/h 62% 0 mm 846 W/m2
10:30 28.4 °C 20.4 °C 1016.1 hPa North 3.2 km/h 9.7 km/h 62% 0 mm 864 W/m2
10:40 28.8 °C 20.8 °C 1016.1 hPa NNE 4.8 km/h 14.5 km/h 62% 0 mm 849 W/m2
10:50 29.3 °C 21.3 °C 1016.1 hPa NNE 8 km/h 12.9 km/h 62% 0 mm 842 W/m2
11:00 29.7 °C 20.8 °C 1016.1 hPa NNE 3.2 km/h 11.3 km/h 59% 0 mm 914 W/m2
11:10 30.1 °C 21.2 °C 1016.1 hPa NNE 4.8 km/h 11.3 km/h 59% 0 mm 926 W/m2
11:30 30.8 °C 21.3 °C 1015.8 hPa NNE 4.8 km/h 14.5 km/h 57% 0 mm 948 W/m2
11:50 31.5 °C 21.4 °C 1015.8 hPa North 4.8 km/h 11.3 km/h 55% 0 mm 963 W/m2
12:00 31.8 °C 21.1 °C 1015.8 hPa North 4.8 km/h 11.3 km/h 53% 0 mm 901 W/m2
12:10 32 °C 21.2 °C 1015.5 hPa North 4.8 km/h 11.3 km/h 53% 0 mm 647 W/m2
12:30 32.6 °C 21.4 °C 1015.5 hPa NNE 1.6 km/h 11.3 km/h 52% 0 mm 831 W/m2
12:40 32.9 °C 21.7 °C 1015.5 hPa North 1.6 km/h 11.3 km/h 52% 0 mm 760 W/m2
12:50 33.1 °C 22.2 °C 1015.5 hPa North 4.8 km/h 9.7 km/h 53% 0 mm 311 W/m2
13:00 33.2 °C 22 °C 1015.1 hPa WNW 3.2 km/h 9.7 km/h 52% 0 mm 952 W/m2
13:10 33.3 °C 22.1 °C 1015.1 hPa WNW 1.6 km/h 9.7 km/h 52% 0 mm 965 W/m2
13:20 33.5 °C 22.3 °C 1015.1 hPa NNE 1.6 km/h 11.3 km/h 52% 0 mm 959 W/m2
13:30 33.6 °C 22.4 °C 1014.8 hPa North 3.2 km/h 8 km/h 52% 0 mm 951 W/m2
13:40 33.7 °C 22.5 °C 1014.8 hPa WSW 4.8 km/h 9.7 km/h 52% 0 mm 942 W/m2
14:00 33.9 °C 22.7 °C 1014.8 hPa West 4.8 km/h 12.9 km/h 52% 0 mm 919 W/m2
14:20 33.9 °C 22.7 °C 1014.4 hPa WNW 4.8 km/h 12.9 km/h 52% 0 mm 890 W/m2
14:30 33.9 °C 23 °C 1014.4 hPa West 3.2 km/h 12.9 km/h 53% 0 mm 874 W/m2
14:40 34 °C 22.8 °C 1014.1 hPa West 9.7 km/h 17.7 km/h 52% 0 mm 857 W/m2
15:00 34 °C 23.1 °C 1014.1 hPa WSW 4.8 km/h 12.9 km/h 53% 0 mm 818 W/m2
15:10 34.2 °C 22.9 °C 1014.1 hPa West 4.8 km/h 16.1 km/h 52% 0 mm 797 W/m2
15:30 34.7 °C 22.7 °C 1013.8 hPa SE 1.6 km/h 12.9 km/h 50% 0 mm 751 W/m2
15:40 34.7 °C 22.1 °C 1014.1 hPa NNE 3.2 km/h 19.3 km/h 48% 0 mm 722 W/m2
15:50 34.9 °C 22.6 °C 1013.8 hPa North 1.6 km/h 12.9 km/h 49% 0 mm 695 W/m2
16:00 35 °C 22.7 °C 1013.8 hPa NE 3.2 km/h 14.5 km/h 49% 0 mm 665 W/m2
16:10 35 °C 22.3 °C 1013.8 hPa NE 4.8 km/h 12.9 km/h 48% 0 mm 285 W/m2
16:20 34.8 °C 22.2 °C 1013.8 hPa NNE 4.8 km/h 16.1 km/h 48% 0 mm 597 W/m2
16:30 34.6 °C 21.7 °C 1013.8 hPa ENE 3.2 km/h 12.9 km/h 47% 0 mm 405 W/m2
16:50 34.6 °C 22 °C 1013.8 hPa NE 4.8 km/h 16.1 km/h 48% 0 mm 508 W/m2
17:00 34.7 °C 21.7 °C 1013.8 hPa NE 3.2 km/h 12.9 km/h 47% 0 mm 474 W/m2
17:40 34.6 °C 21.7 °C 1013.8 hPa NE 3.2 km/h 11.3 km/h 47% 0 mm 335 W/m2
17:50 34.6 °C 21.7 °C 1013.8 hPa North 3.2 km/h 11.3 km/h 47% 0 mm 309 W/m2
18:10 34.5 °C 21.6 °C 1013.8 hPa NE 1.6 km/h 8 km/h 47% 0 mm 248 W/m2
18:20 34.3 °C 21.4 °C 1013.8 hPa NE 1.6 km/h 9.7 km/h 47% 0 mm 218 W/m2
18:30 34.1 °C 21.2 °C 1013.8 hPa ENE 1.6 km/h 9.7 km/h 47% 0 mm 188 W/m2
18:40 34 °C 21.1 °C 1013.8 hPa NNE 1.6 km/h 9.7 km/h 47% 0 mm 161 W/m2
18:50 33.8 °C 21.3 °C 1013.8 hPa Calm   9.7 km/h 48% 0 mm 133 W/m2
19:00 33.5 °C 21 °C 1013.8 hPa NNW 1.6 km/h 6.4 km/h 48% 0 mm 106 W/m2
19:10 33.1 °C 21.3 °C 1013.8 hPa Calm   4.8 km/h 50% 0 mm 72 W/m2
19:20 32.6 °C 21.4 °C 1013.8 hPa Calm   4.8 km/h 52% 0 mm 62 W/m2
19:30 32 °C 20.9 °C 1014.1 hPa NNW 1.6 km/h 4.8 km/h 52% 0 mm 40 W/m2
19:40 31.3 °C 20.6 °C 1014.1 hPa NNW 1.6 km/h 6.4 km/h 53% 0 mm 29 W/m2
19:50 30.7 °C 20.6 °C 1014.1 hPa NW 3.2 km/h 8 km/h 55% 0 mm 17 W/m2
20:00 30.1 °C 21.5 °C 1014.4 hPa SW 1.6 km/h 8 km/h 60% 0 mm 10 W/m2
20:10 29.5 °C 21.4 °C 1014.4 hPa SSW 1.6 km/h 4.8 km/h 62% 0 mm 5 W/m2
20:20 28.9 °C 21.2 °C 1014.4 hPa SW 1.6 km/h 4.8 km/h 63% 0 mm 0 W/m2
20:30 28.3 °C 20.8 °C 1014.4 hPa SW 1.6 km/h 8 km/h 64% 0 mm 0 W/m2
20:40 27.7 °C 21 °C 1014.8 hPa SW 3.2 km/h 4.8 km/h 67% 0 mm 0 W/m2
20:50 27.3 °C 20.9 °C 1014.8 hPa SW 3.2 km/h 4.8 km/h 68% 0 mm 0 W/m2
21:00 26.7 °C 20.6 °C 1014.8 hPa SSW 3.2 km/h 6.4 km/h 69% 0 mm 0 W/m2
21:10 26.1 °C 20.9 °C 1015.1 hPa WSW 3.2 km/h 6.4 km/h 73% 0 mm 0 W/m2
21:20 25.6 °C 20.2 °C 1015.1 hPa WSW 3.2 km/h 6.4 km/h 72% 0 mm 0 W/m2
21:30 25.1 °C 20.1 °C 1015.5 hPa SW 3.2 km/h 4.8 km/h 74% 0 mm 0 W/m2
21:40 24.7 °C 19.9 °C 1015.5 hPa WSW 3.2 km/h 4.8 km/h 75% 0 mm 0 W/m2
21:50 24.3 °C 20 °C 1015.5 hPa SW 1.6 km/h 4.8 km/h 77% 0 mm 0 W/m2
22:00 24 °C 19.7 °C 1015.5 hPa Calm   3.2 km/h 77% 0 mm 0 W/m2
22:10 23.7 °C 19.4 °C 1015.5 hPa West 1.6 km/h 3.2 km/h 77% 0 mm 0 W/m2
22:20 23.5 °C 19.6 °C 1015.5 hPa SSW 1.6 km/h 3.2 km/h 79% 0 mm 0 W/m2
22:40 22.9 °C 19.3 °C 1015.5 hPa Calm   1.6 km/h 80% 0 mm 0 W/m2
22:50 22.4 °C 19 °C 1015.5 hPa Calm     81% 0 mm 0 W/m2
23:00 22.2 °C 18.8 °C 1015.8 hPa Calm   4.8 km/h 81% 0 mm 0 W/m2
23:20 21.8 °C 18.7 °C 1015.8 hPa SW 1.6 km/h 3.2 km/h 83% 0 mm 0 W/m2
23:30 21.5 °C 18.7 °C 1015.8 hPa Calm   3.2 km/h 84% 0 mm 0 W/m2
23:40 21.4 °C 18.4 °C 1015.5 hPa SW 1.6 km/h 3.2 km/h 83% 0 mm 0 W/m2
23:50 21 °C 18.4 °C 1015.8 hPa Calm   3.2 km/h 85% 0 mm 0 W/m2
Knjazevac, Serbia
Compliments of Weather Underground - 2 mb